createdAt,value
2019-05-21T00:00:29.130Z,12.40
2019-05-21T00:10:34.828Z,12.31
2019-05-21T00:20:39.412Z,12.31
2019-05-21T00:31:20.531Z,12.28
2019-05-21T00:42:02.074Z,11.85
2019-05-21T00:52:09.161Z,11.60
2019-05-21T01:02:13.743Z,11.72
2019-05-21T01:12:18.375Z,11.85
2019-05-21T01:22:22.832Z,11.75
2019-05-21T01:32:28.443Z,11.53
2019-05-21T01:42:33.028Z,11.29
2019-05-21T01:52:37.622Z,11.26
2019-05-21T02:02:42.125Z,11.19
2019-05-21T02:12:46.564Z,11.25
2019-05-21T02:22:50.997Z,11.32
2019-05-21T02:32:55.462Z,11.09
2019-05-21T02:42:59.917Z,10.96
2019-05-21T02:53:04.719Z,11.04
2019-05-21T03:03:17.006Z,10.84
2019-05-21T03:13:21.507Z,10.80
2019-05-21T03:23:27.087Z,10.83
2019-05-21T03:33:32.537Z,10.80
2019-05-21T03:43:37.074Z,10.83
2019-05-21T03:53:41.549Z,11.03
2019-05-21T04:03:46.093Z,11.35
2019-05-21T04:13:51.663Z,11.46
2019-05-21T04:23:56.226Z,11.71
2019-05-21T04:34:00.701Z,11.92
2019-05-21T04:44:05.276Z,12.26
2019-05-21T04:54:09.800Z,12.76
2019-05-21T05:04:14.370Z,13.33
2019-05-21T05:14:20.096Z,13.80
2019-05-21T05:24:24.551Z,14.36
2019-05-21T05:34:29.016Z,14.86
2019-05-21T05:44:33.625Z,15.30
2019-05-21T05:54:38.053Z,15.60
2019-05-21T06:04:42.623Z,15.91
2019-05-21T06:14:47.105Z,16.30
2019-05-21T06:24:52.602Z,16.93
2019-05-21T06:34:57.066Z,17.37
2019-05-21T06:45:02.201Z,17.91
2019-05-21T06:55:08.007Z,18.48
2019-05-21T07:05:12.676Z,19.10
2019-05-21T07:15:17.201Z,19.61
2019-05-21T07:25:22.674Z,19.50
2019-05-21T07:35:27.276Z,19.98
2019-05-21T07:45:32.021Z,20.38
2019-05-21T07:55:36.589Z,20.39
2019-05-21T08:05:41.110Z,20.78
2019-05-21T08:15:45.653Z,21.61
2019-05-21T08:25:50.180Z,22.10
2019-05-21T08:35:54.639Z,22.05
2019-05-21T08:45:59.084Z,22.35
2019-05-21T08:56:03.765Z,21.89
2019-05-21T09:06:08.360Z,21.87
2019-05-21T09:16:12.825Z,22.42
2019-05-21T09:36:26.118Z,23.09
2019-05-21T09:46:30.624Z,22.91
2019-05-21T09:56:38.132Z,23.87
2019-05-21T10:06:42.844Z,25.17
2019-05-21T10:16:47.503Z,24.50
2019-05-21T10:26:52.035Z,24.87
2019-05-21T10:36:56.702Z,24.10
2019-05-21T10:47:01.138Z,25.04
2019-05-21T10:57:05.797Z,25.47
2019-05-21T11:07:12.385Z,25.51
2019-05-21T11:17:17.686Z,24.59
2019-05-21T11:27:22.301Z,23.29
2019-05-21T11:37:26.761Z,22.17
2019-05-21T11:47:31.229Z,20.54
2019-05-21T11:57:35.668Z,20.42
2019-05-21T12:07:40.104Z,21.06
2019-05-21T12:17:44.730Z,21.32
2019-05-21T12:27:49.301Z,21.12
2019-05-21T12:37:53.734Z,21.04
2019-05-21T12:47:58.249Z,21.30
2019-05-21T12:58:02.743Z,21.56
2019-05-21T13:08:07.323Z,21.54
2019-05-21T13:18:11.854Z,22.15
2019-05-21T13:28:16.452Z,22.46
2019-05-21T13:38:20.955Z,22.98
2019-05-21T13:48:25.398Z,23.12
2019-05-21T13:58:30.139Z,23.41
2019-05-21T14:08:35.785Z,23.96
2019-05-21T14:18:40.320Z,24.34
2019-05-21T14:28:44.880Z,27.84
2019-05-21T14:38:49.357Z,30.41
2019-05-21T14:48:53.896Z,29.78
2019-05-21T14:58:58.382Z,27.74
2019-05-21T15:09:04.674Z,23.89
2019-05-21T15:19:09.394Z,20.86
2019-05-21T15:29:13.946Z,18.45
2019-05-21T15:39:18.488Z,18.24
2019-05-21T15:49:35.457Z,17.90
2019-05-21T15:59:29.277Z,17.55
2019-05-21T16:09:33.801Z,17.38
2019-05-21T16:19:38.310Z,17.52
2019-05-21T16:29:43.899Z,16.85
2019-05-21T16:39:48.481Z,16.24
2019-05-21T16:49:52.961Z,16.39
2019-05-21T16:59:57.632Z,16.53
2019-05-21T17:10:02.313Z,16.61
2019-05-21T17:20:09.255Z,16.56
2019-05-21T17:30:14.297Z,16.28
2019-05-21T17:40:19.064Z,15.57
2019-05-21T17:50:24.271Z,15.65
2019-05-21T18:00:33.576Z,15.98
2019-05-21T18:10:38.308Z,15.84
2019-05-21T18:20:43.403Z,15.65
2019-05-21T18:30:48.286Z,15.60
2019-05-21T18:40:52.916Z,15.56
2019-05-21T18:50:57.615Z,15.53
2019-05-21T19:01:02.419Z,15.50
2019-05-21T19:11:07.252Z,15.68
2019-05-21T19:31:15.548Z,15.23
2019-05-21T19:41:20.267Z,15.01
2019-05-21T19:51:24.947Z,14.79
2019-05-21T20:01:29.728Z,14.70
2019-05-21T20:11:34.264Z,14.73
2019-05-21T20:21:40.388Z,14.78
2019-05-21T20:31:45.362Z,14.73
2019-05-21T20:41:50.424Z,14.64
2019-05-21T20:52:34.572Z,14.62
2019-05-21T21:02:40.752Z,14.67
2019-05-21T21:12:45.480Z,14.79
2019-05-21T21:22:50.007Z,14.96
2019-05-21T21:32:56.397Z,15.09
2019-05-21T21:43:01.265Z,15.19
2019-05-21T21:53:06.000Z,15.18
2019-05-21T22:03:12.479Z,15.20
2019-05-21T22:13:17.402Z,15.23
2019-05-21T22:23:23.373Z,15.25
2019-05-21T22:33:28.072Z,15.20
2019-05-21T22:43:33.153Z,15.22
2019-05-21T22:53:37.759Z,15.25
2019-05-21T23:03:42.339Z,15.23
2019-05-21T23:13:46.843Z,15.22
2019-05-21T23:23:53.678Z,15.22
2019-05-21T23:34:00.386Z,15.22
2019-05-21T23:44:05.989Z,15.19
2019-05-21T23:54:10.978Z,15.00
